sensor_id;sensor_type;location;lat;lon;timestamp;P1;durP1;ratioP1;P2;durP2;ratioP2
4527;SDS011;62320;51.520;6.818;2023-02-07T00:06:52;36.90;;;13.17;;
4527;SDS011;62320;51.520;6.818;2023-02-07T00:16:53;28.95;;;11.18;;
4527;SDS011;62320;51.520;6.818;2023-02-07T00:26:55;41.37;;;15.37;;
4527;SDS011;62320;51.520;6.818;2023-02-07T00:36:57;40.27;;;16.20;;
4527;SDS011;62320;51.520;6.818;2023-02-07T00:46:58;20.38;;;7.60;;
4527;SDS011;62320;51.520;6.818;2023-02-07T00:57:00;33.27;;;11.97;;
4527;SDS011;62320;51.520;6.818;2023-02-07T01:07:01;35.87;;;11.57;;
4527;SDS011;62320;51.520;6.818;2023-02-07T01:17:03;32.33;;;13.75;;
4527;SDS011;62320;51.520;6.818;2023-02-07T01:27:04;45.97;;;15.63;;
4527;SDS011;62320;51.520;6.818;2023-02-07T01:37:06;30.50;;;10.97;;
4527;SDS011;62320;51.520;6.818;2023-02-07T01:47:11;14.37;;;5.83;;
4527;SDS011;62320;51.520;6.818;2023-02-07T01:57:18;35.83;;;12.90;;
4527;SDS011;62320;51.520;6.818;2023-02-07T02:07:22;39.67;;;14.13;;
4527;SDS011;62320;51.520;6.818;2023-02-07T02:17:39;42.33;;;13.10;;
4527;SDS011;62320;51.520;6.818;2023-02-07T02:27:52;39.20;;;13.70;;
4527;SDS011;62320;51.520;6.818;2023-02-07T02:38:24;22.20;;;9.07;;
4527;SDS011;62320;51.520;6.818;2023-02-07T02:48:31;36.53;;;12.13;;
4527;SDS011;62320;51.520;6.818;2023-02-07T03:19:18;21.63;;;8.33;;
4527;SDS011;62320;51.520;6.818;2023-02-07T03:29:24;27.53;;;8.60;;
4527;SDS011;62320;51.520;6.818;2023-02-07T03:39:29;33.08;;;11.68;;
4527;SDS011;62320;51.520;6.818;2023-02-07T03:49:30;38.00;;;12.50;;
4527;SDS011;62320;51.520;6.818;2023-02-07T03:59:32;36.40;;;11.03;;
4527;SDS011;62320;51.520;6.818;2023-02-07T04:09:33;52.97;;;14.35;;
4527;SDS011;62320;51.520;6.818;2023-02-07T04:19:35;32.07;;;11.27;;
4527;SDS011;62320;51.520;6.818;2023-02-07T04:29:36;30.97;;;10.83;;
4527;SDS011;62320;51.520;6.818;2023-02-07T04:39:38;26.05;;;8.90;;
4527;SDS011;62320;51.520;6.818;2023-02-07T04:49:39;24.77;;;8.65;;
4527;SDS011;62320;51.520;6.818;2023-02-07T04:59:41;29.30;;;10.03;;
4527;SDS011;62320;51.520;6.818;2023-02-07T05:09:42;22.23;;;9.63;;
4527;SDS011;62320;51.520;6.818;2023-02-07T05:19:44;49.85;;;13.88;;
4527;SDS011;62320;51.520;6.818;2023-02-07T05:29:45;52.17;;;13.33;;
4527;SDS011;62320;51.520;6.818;2023-02-07T05:39:47;59.13;;;16.90;;
4527;SDS011;62320;51.520;6.818;2023-02-07T05:49:48;43.55;;;13.73;;
4527;SDS011;62320;51.520;6.818;2023-02-07T05:59:50;46.47;;;15.17;;
4527;SDS011;62320;51.520;6.818;2023-02-07T06:09:51;47.37;;;15.60;;
4527;SDS011;62320;51.520;6.818;2023-02-07T06:19:53;34.17;;;12.00;;
4527;SDS011;62320;51.520;6.818;2023-02-07T06:29:54;38.78;;;14.38;;
4527;SDS011;62320;51.520;6.818;2023-02-07T06:39:55;27.30;;;7.83;;
4527;SDS011;62320;51.520;6.818;2023-02-07T06:49:57;18.30;;;8.57;;
4527;SDS011;62320;51.520;6.818;2023-02-07T06:59:58;30.02;;;12.10;;
4527;SDS011;62320;51.520;6.818;2023-02-07T07:10:00;29.80;;;11.53;;
4527;SDS011;62320;51.520;6.818;2023-02-07T07:20:01;27.03;;;10.57;;
4527;SDS011;62320;51.520;6.818;2023-02-07T07:30:03;30.20;;;14.25;;
4527;SDS011;62320;51.520;6.818;2023-02-07T07:40:05;32.53;;;12.90;;
4527;SDS011;62320;51.520;6.818;2023-02-07T07:50:07;27.50;;;10.93;;
4527;SDS011;62320;51.520;6.818;2023-02-07T08:00:09;22.08;;;8.98;;
4527;SDS011;62320;51.520;6.818;2023-02-07T08:10:11;23.70;;;8.82;;
4527;SDS011;62320;51.520;6.818;2023-02-07T08:20:13;22.23;;;9.53;;
4527;SDS011;62320;51.520;6.818;2023-02-07T08:30:14;36.07;;;19.13;;
4527;SDS011;62320;51.520;6.818;2023-02-07T08:40:19;45.92;;;23.63;;
4527;SDS011;62320;51.520;6.818;2023-02-07T08:50:20;24.00;;;7.93;;
4527;SDS011;62320;51.520;6.818;2023-02-07T09:00:22;46.10;;;23.93;;
4527;SDS011;62320;51.520;6.818;2023-02-07T09:10:23;35.50;;;16.55;;
4527;SDS011;62320;51.520;6.818;2023-02-07T09:20:26;27.70;;;14.10;;
4527;SDS011;62320;51.520;6.818;2023-02-07T09:30:28;23.60;;;11.37;;
4527;SDS011;62320;51.520;6.818;2023-02-07T09:40:31;29.10;;;12.00;;
4527;SDS011;62320;51.520;6.818;2023-02-07T09:50:35;14.32;;;7.05;;
4527;SDS011;62320;51.520;6.818;2023-02-07T10:00:45;10.87;;;5.83;;
4527;SDS011;62320;51.520;6.818;2023-02-07T10:31:25;16.37;;;6.13;;
4527;SDS011;62320;51.520;6.818;2023-02-07T11:01:35;16.30;;;6.20;;
4527;SDS011;62320;51.520;6.818;2023-02-07T11:11:39;8.90;;;3.97;;
4527;SDS011;62320;51.520;6.818;2023-02-07T11:21:44;14.63;;;5.65;;
4527;SDS011;62320;51.520;6.818;2023-02-07T11:31:48;12.52;;;4.90;;
4527;SDS011;62320;51.520;6.818;2023-02-07T11:41:56;12.97;;;5.30;;
4527;SDS011;62320;51.520;6.818;2023-02-07T11:52:00;15.17;;;5.97;;
4527;SDS011;62320;51.520;6.818;2023-02-07T12:02:11;9.25;;;3.47;;
4527;SDS011;62320;51.520;6.818;2023-02-07T12:12:20;11.90;;;4.73;;
4527;SDS011;62320;51.520;6.818;2023-02-07T12:22:40;3.93;;;1.47;;
4527;SDS011;62320;51.520;6.818;2023-02-07T12:43:36;10.93;;;4.00;;
4527;SDS011;62320;51.520;6.818;2023-02-07T13:04:03;11.80;;;4.07;;
4527;SDS011;62320;51.520;6.818;2023-02-07T13:24:12;13.13;;;4.67;;
4527;SDS011;62320;51.520;6.818;2023-02-07T13:34:18;11.07;;;3.87;;
4527;SDS011;62320;51.520;6.818;2023-02-07T13:44:45;8.63;;;3.58;;
4527;SDS011;62320;51.520;6.818;2023-02-07T14:05:21;4.97;;;2.00;;
4527;SDS011;62320;51.520;6.818;2023-02-07T14:25:37;7.13;;;2.57;;
4527;SDS011;62320;51.520;6.818;2023-02-07T14:46:16;11.90;;;3.80;;
4527;SDS011;62320;51.520;6.818;2023-02-07T15:06:49;14.40;;;4.87;;
4527;SDS011;62320;51.520;6.818;2023-02-07T15:16:51;16.07;;;8.00;;
4527;SDS011;62320;51.520;6.818;2023-02-07T15:26:58;10.68;;;4.55;;
4527;SDS011;62320;51.520;6.818;2023-02-07T15:37:12;13.33;;;4.87;;
4527;SDS011;62320;51.520;6.818;2023-02-07T15:57:35;7.45;;;2.75;;
4527;SDS011;62320;51.520;6.818;2023-02-07T16:07:40;10.63;;;4.40;;
4527;SDS011;62320;51.520;6.818;2023-02-07T16:17:45;10.33;;;4.00;;
4527;SDS011;62320;51.520;6.818;2023-02-07T16:27:47;14.98;;;5.03;;
4527;SDS011;62320;51.520;6.818;2023-02-07T16:37:52;12.88;;;5.05;;
4527;SDS011;62320;51.520;6.818;2023-02-07T16:47:55;11.90;;;4.37;;
4527;SDS011;62320;51.520;6.818;2023-02-07T16:57:59;15.97;;;5.43;;
4527;SDS011;62320;51.520;6.818;2023-02-07T17:08:03;13.90;;;5.70;;
4527;SDS011;62320;51.520;6.818;2023-02-07T17:18:05;15.23;;;6.53;;
4527;SDS011;62320;51.520;6.818;2023-02-07T17:28:08;17.27;;;6.47;;
4527;SDS011;62320;51.520;6.818;2023-02-07T17:38:12;15.18;;;6.80;;
4527;SDS011;62320;51.520;6.818;2023-02-07T17:48:14;21.03;;;7.87;;
4527;SDS011;62320;51.520;6.818;2023-02-07T17:58:16;16.37;;;7.17;;
4527;SDS011;62320;51.520;6.818;2023-02-07T18:08:17;18.77;;;7.50;;
4527;SDS011;62320;51.520;6.818;2023-02-07T18:18:19;21.95;;;8.38;;
4527;SDS011;62320;51.520;6.818;2023-02-07T18:28:21;16.07;;;6.87;;
4527;SDS011;62320;51.520;6.818;2023-02-07T18:38:23;16.80;;;7.27;;
4527;SDS011;62320;51.520;6.818;2023-02-07T18:48:24;15.73;;;6.65;;
4527;SDS011;62320;51.520;6.818;2023-02-07T18:58:26;19.90;;;7.07;;
4527;SDS011;62320;51.520;6.818;2023-02-07T19:08:27;14.60;;;7.40;;
4527;SDS011;62320;51.520;6.818;2023-02-07T19:18:29;22.23;;;10.55;;
4527;SDS011;62320;51.520;6.818;2023-02-07T19:28:31;27.33;;;12.93;;
4527;SDS011;62320;51.520;6.818;2023-02-07T19:38:34;30.47;;;13.20;;
4527;SDS011;62320;51.520;6.818;2023-02-07T19:48:36;24.52;;;11.73;;
4527;SDS011;62320;51.520;6.818;2023-02-07T19:58:39;24.90;;;13.57;;
4527;SDS011;62320;51.520;6.818;2023-02-07T20:08:46;27.43;;;14.93;;
4527;SDS011;62320;51.520;6.818;2023-02-07T20:18:48;26.47;;;11.40;;
4527;SDS011;62320;51.520;6.818;2023-02-07T20:28:52;20.42;;;10.15;;
4527;SDS011;62320;51.520;6.818;2023-02-07T20:38:57;25.03;;;12.30;;
4527;SDS011;62320;51.520;6.818;2023-02-07T20:49:01;18.90;;;9.13;;
4527;SDS011;62320;51.520;6.818;2023-02-07T20:59:16;19.67;;;9.00;;
4527;SDS011;62320;51.520;6.818;2023-02-07T21:09:28;19.77;;;8.43;;
4527;SDS011;62320;51.520;6.818;2023-02-07T21:19:31;22.07;;;9.17;;
4527;SDS011;62320;51.520;6.818;2023-02-07T21:29:33;16.40;;;7.85;;
4527;SDS011;62320;51.520;6.818;2023-02-07T21:39:36;18.30;;;8.40;;
4527;SDS011;62320;51.520;6.818;2023-02-07T21:49:37;18.27;;;8.00;;
4527;SDS011;62320;51.520;6.818;2023-02-07T21:59:39;19.13;;;7.73;;
4527;SDS011;62320;51.520;6.818;2023-02-07T22:09:42;27.63;;;10.38;;
4527;SDS011;62320;51.520;6.818;2023-02-07T22:19:44;26.00;;;11.97;;
4527;SDS011;62320;51.520;6.818;2023-02-07T22:29:45;22.07;;;10.23;;
4527;SDS011;62320;51.520;6.818;2023-02-07T22:39:50;22.88;;;10.30;;
4527;SDS011;62320;51.520;6.818;2023-02-07T22:49:52;20.57;;;10.40;;
4527;SDS011;62320;51.520;6.818;2023-02-07T22:59:54;19.90;;;9.23;;
4527;SDS011;62320;51.520;6.818;2023-02-07T23:10:00;22.90;;;10.05;;
4527;SDS011;62320;51.520;6.818;2023-02-07T23:20:03;27.02;;;10.85;;
4527;SDS011;62320;51.520;6.818;2023-02-07T23:30:05;28.40;;;11.70;;
4527;SDS011;62320;51.520;6.818;2023-02-07T23:40:07;38.73;;;14.60;;
4527;SDS011;62320;51.520;6.818;2023-02-07T23:50:09;39.78;;;15.70;;
